createdAt,value
2022-11-08T00:01:57.522Z,51.63
2022-11-08T00:04:30.255Z,51.64
2022-11-08T00:07:03.314Z,51.61
2022-11-08T00:09:36.367Z,51.60
2022-11-08T00:12:09.254Z,51.60
2022-11-08T00:14:42.283Z,51.68
2022-11-08T00:17:15.281Z,51.74
2022-11-08T00:19:47.981Z,51.75
2022-11-08T00:22:21.263Z,51.83
2022-11-08T00:24:54.328Z,51.71
2022-11-08T00:27:27.258Z,51.81
2022-11-08T00:30:00.188Z,51.99
2022-11-08T00:32:33.267Z,52.04
2022-11-08T00:35:06.280Z,51.92
2022-11-08T00:37:39.290Z,52.00
2022-11-08T00:40:12.266Z,51.94
2022-11-08T00:42:45.325Z,52.01
2022-11-08T00:45:18.278Z,52.00
2022-11-08T00:47:51.359Z,51.99
2022-11-08T00:50:24.345Z,51.96
2022-11-08T00:52:57.392Z,52.00
2022-11-08T00:55:30.392Z,51.98
2022-11-08T00:58:03.417Z,52.03
2022-11-08T01:00:36.132Z,52.05
2022-11-08T01:03:09.355Z,52.02
2022-11-08T01:05:42.374Z,52.12
2022-11-08T01:08:15.589Z,52.11
2022-11-08T01:10:48.304Z,52.17
2022-11-08T01:13:21.455Z,52.21
2022-11-08T01:15:54.410Z,52.21
2022-11-08T01:18:27.439Z,52.15
2022-11-08T01:21:00.409Z,52.29
2022-11-08T01:23:33.398Z,52.21
2022-11-08T01:26:06.241Z,52.23
2022-11-08T01:28:39.365Z,52.27
2022-11-08T01:31:12.381Z,52.24
2022-11-08T01:33:50.849Z,52.29
2022-11-08T01:36:18.384Z,52.26
2022-11-08T01:38:51.449Z,52.25
2022-11-08T01:41:24.442Z,52.25
2022-11-08T01:43:57.515Z,52.22
2022-11-08T01:46:30.432Z,52.21
2022-11-08T01:49:03.462Z,52.21
2022-11-08T01:51:36.474Z,52.23
2022-11-08T01:54:09.400Z,52.22
2022-11-08T01:56:42.438Z,52.22
2022-11-08T01:59:15.374Z,52.22
2022-11-08T02:01:48.552Z,52.18
2022-11-08T02:04:21.396Z,52.21
2022-11-08T02:06:54.517Z,52.22
2022-11-08T02:09:27.387Z,52.13
2022-11-08T02:12:00.506Z,52.20
2022-11-08T02:14:33.416Z,52.19
2022-11-08T02:17:06.529Z,52.13
2022-11-08T02:19:39.298Z,52.14
2022-11-08T02:22:12.467Z,52.17
2022-11-08T02:24:45.538Z,52.16
2022-11-08T02:27:18.502Z,52.19
2022-11-08T02:29:51.536Z,52.27
2022-11-08T02:32:24.493Z,52.18
2022-11-08T02:34:57.536Z,52.25
2022-11-08T02:37:30.427Z,52.19
2022-11-08T02:40:03.519Z,52.19
2022-11-08T02:42:36.555Z,52.23
2022-11-08T02:45:09.508Z,52.19
2022-11-08T02:47:56.494Z,52.24
2022-11-08T02:50:29.464Z,52.20
2022-11-08T02:53:02.555Z,52.25
2022-11-08T02:55:35.216Z,52.23
2022-11-08T02:58:08.530Z,52.24
2022-11-08T03:00:41.292Z,52.28
2022-11-08T03:03:14.569Z,52.30
2022-11-08T03:05:47.649Z,52.24
2022-11-08T03:08:21.142Z,52.22
2022-11-08T03:10:53.493Z,52.29
2022-11-08T03:13:26.584Z,52.26
2022-11-08T03:15:59.550Z,52.24
2022-11-08T03:18:32.591Z,52.24
2022-11-08T03:21:05.587Z,52.25
2022-11-08T03:23:38.534Z,52.27
2022-11-08T03:26:11.593Z,52.28
2022-11-08T03:28:44.579Z,52.31
2022-11-08T03:31:17.518Z,52.24
2022-11-08T03:33:50.600Z,52.24
2022-11-08T03:36:23.539Z,52.26
2022-11-08T03:38:56.676Z,52.25
2022-11-08T03:41:29.481Z,52.23
2022-11-08T03:44:02.606Z,52.20
2022-11-08T03:46:35.646Z,52.15
2022-11-08T03:49:08.569Z,52.18
2022-11-08T03:51:41.630Z,52.23
2022-11-08T03:54:14.561Z,52.15
2022-11-08T03:56:47.639Z,52.18
2022-11-08T03:59:20.612Z,52.13
2022-11-08T04:01:53.830Z,52.20
2022-11-08T04:04:26.617Z,52.09
2022-11-08T04:06:59.613Z,52.15
2022-11-08T04:09:32.701Z,52.09
2022-11-08T04:12:05.596Z,52.13
2022-11-08T04:14:38.648Z,52.11
2022-11-08T04:17:11.689Z,52.11
2022-11-08T04:19:44.532Z,52.11
2022-11-08T04:22:17.604Z,52.14
2022-11-08T04:24:50.739Z,52.18
2022-11-08T04:27:23.697Z,52.16
2022-11-08T04:29:56.685Z,52.12
2022-11-08T04:32:29.711Z,52.15
2022-11-08T04:35:02.511Z,52.19
2022-11-08T04:37:35.717Z,52.20
2022-11-08T04:40:08.687Z,52.13
2022-11-08T04:42:41.637Z,52.20
2022-11-08T04:45:14.631Z,52.19
2022-11-08T04:47:48.577Z,52.22
2022-11-08T04:50:20.682Z,52.19
2022-11-08T04:52:53.726Z,52.19
2022-11-08T04:55:26.532Z,52.20
2022-11-08T04:57:59.679Z,52.22
2022-11-08T05:00:32.761Z,52.23
2022-11-08T05:03:05.740Z,52.21
2022-11-08T05:05:38.377Z,52.26
2022-11-08T05:08:11.400Z,52.23
2022-11-08T05:10:44.389Z,52.19
2022-11-08T05:13:17.528Z,52.24
2022-11-08T05:15:50.771Z,52.23
2022-11-08T05:18:23.558Z,52.23
2022-11-08T05:20:56.468Z,52.23
2022-11-08T05:23:35.735Z,52.27
2022-11-08T05:26:08.776Z,52.24
2022-11-08T05:28:41.787Z,52.27
2022-11-08T05:31:14.746Z,52.19
2022-11-08T05:33:47.792Z,52.21
2022-11-08T05:36:20.703Z,52.21
2022-11-08T05:38:53.713Z,52.26
2022-11-08T05:41:26.673Z,52.22
2022-11-08T05:43:59.440Z,52.20
2022-11-08T05:46:38.764Z,52.18
2022-11-08T05:49:11.692Z,52.22
2022-11-08T05:51:58.336Z,52.21
2022-11-08T05:54:31.427Z,52.18
2022-11-08T05:57:04.467Z,52.21
2022-11-08T05:59:37.766Z,52.19
2022-11-08T06:02:11.043Z,52.20
2022-11-08T06:04:43.631Z,52.21
2022-11-08T06:07:19.714Z,52.23
2022-11-08T06:09:52.759Z,52.22
2022-11-08T06:12:25.612Z,52.21
2022-11-08T06:14:58.638Z,52.21
2022-11-08T06:17:31.655Z,52.22
2022-11-08T06:20:04.839Z,52.22
2022-11-08T06:22:51.533Z,52.26
2022-11-08T06:25:24.748Z,52.23
2022-11-08T06:27:57.588Z,52.24
2022-11-08T06:30:30.679Z,52.23
2022-11-08T06:33:04.246Z,52.25
2022-11-08T06:35:37.918Z,52.26
2022-11-08T06:38:10.781Z,52.24
2022-11-08T06:40:43.882Z,52.27
2022-11-08T06:43:19.879Z,52.37
2022-11-08T06:45:49.890Z,52.34
2022-11-08T06:48:22.892Z,52.15
2022-11-08T06:50:55.831Z,51.67
2022-11-08T06:53:28.922Z,51.56
2022-11-08T06:56:01.888Z,51.49
2022-11-08T06:58:34.968Z,51.38
2022-11-08T07:01:08.083Z,51.50
2022-11-08T07:03:54.868Z,51.36
2022-11-08T07:06:27.825Z,51.27
2022-11-08T07:09:00.848Z,51.24
2022-11-08T07:11:33.945Z,51.25
2022-11-08T07:14:06.971Z,51.18
2022-11-08T07:16:39.868Z,51.02
2022-11-08T07:19:12.839Z,51.03
2022-11-08T07:21:45.941Z,51.02
2022-11-08T07:24:24.784Z,51.02
2022-11-08T07:26:57.918Z,51.06
2022-11-08T07:29:31.012Z,51.11
2022-11-08T07:32:04.068Z,51.11
2022-11-08T07:34:37.867Z,51.11
2022-11-08T07:37:10.975Z,51.10
2022-11-08T07:39:43.934Z,51.03
2022-11-08T07:42:16.934Z,51.10
2022-11-08T07:44:49.966Z,51.14
2022-11-08T07:47:23.030Z,51.14
2022-11-08T07:49:55.951Z,51.15
2022-11-08T07:52:29.004Z,51.17
2022-11-08T07:55:01.957Z,51.14
2022-11-08T07:57:35.077Z,51.13
2022-11-08T08:00:08.998Z,51.11
2022-11-08T08:02:42.055Z,51.09
2022-11-08T08:05:14.946Z,51.10
2022-11-08T08:07:47.962Z,51.05
2022-11-08T08:10:34.702Z,51.02
2022-11-08T08:13:08.003Z,51.02
2022-11-08T08:15:40.998Z,50.92
2022-11-08T08:18:13.916Z,50.99
2022-11-08T08:20:47.071Z,50.93
2022-11-08T08:23:20.290Z,50.92
2022-11-08T08:25:52.977Z,50.93
2022-11-08T08:28:26.069Z,50.91
2022-11-08T08:30:59.046Z,50.91
2022-11-08T08:33:32.061Z,50.87
2022-11-08T08:36:05.014Z,50.88
2022-11-08T08:38:44.091Z,50.85
2022-11-08T08:41:10.971Z,50.86
2022-11-08T08:43:44.088Z,50.84
2022-11-08T08:46:17.084Z,50.83
2022-11-08T08:48:50.076Z,50.82
2022-11-08T08:51:22.999Z,50.78
2022-11-08T08:54:09.924Z,50.76
2022-11-08T08:56:43.124Z,50.73
2022-11-08T09:01:49.006Z,50.71
2022-11-08T09:04:22.008Z,50.67
2022-11-08T09:06:55.055Z,50.67
2022-11-08T09:09:28.114Z,50.67
2022-11-08T09:12:01.125Z,50.66
2022-11-08T09:14:34.001Z,50.66
2022-11-08T09:17:07.124Z,50.62
2022-11-08T09:19:40.048Z,50.62
2022-11-08T09:22:13.136Z,50.64
2022-11-08T09:25:00.024Z,50.65
2022-11-08T09:27:33.121Z,50.63
2022-11-08T09:30:06.063Z,50.62
2022-11-08T09:32:59.565Z,50.63
2022-11-08T09:35:12.120Z,50.61
2022-11-08T09:37:48.665Z,50.58
2022-11-08T09:40:18.192Z,50.57
2022-11-08T09:42:54.097Z,50.58
2022-11-08T09:45:27.187Z,50.57
2022-11-08T09:48:01.269Z,50.58
2022-11-08T09:50:33.182Z,50.58
2022-11-08T09:53:06.171Z,50.60
2022-11-08T09:55:39.173Z,50.56
2022-11-08T09:58:12.107Z,50.55
2022-11-08T10:00:45.191Z,50.59
2022-11-08T10:03:18.409Z,50.56
2022-11-08T10:05:51.093Z,50.55
2022-11-08T10:08:24.147Z,50.56
2022-11-08T10:10:57.333Z,50.55
2022-11-08T10:13:31.198Z,50.56
2022-11-08T10:16:04.249Z,50.56
2022-11-08T10:18:37.232Z,50.54
2022-11-08T10:21:10.180Z,50.51
2022-11-08T10:23:43.226Z,50.52
2022-11-08T10:26:16.151Z,50.52
2022-11-08T10:28:49.257Z,50.50
2022-11-08T10:31:22.122Z,50.51
2022-11-08T10:33:55.231Z,50.49
2022-11-08T10:36:28.156Z,50.49
2022-11-08T10:39:01.274Z,50.45
2022-11-08T10:41:34.195Z,50.44
2022-11-08T10:44:07.296Z,50.46
2022-11-08T10:46:40.151Z,50.43
2022-11-08T10:49:13.162Z,50.44
2022-11-08T10:51:46.268Z,50.43
2022-11-08T10:54:19.140Z,50.45
2022-11-08T10:56:52.166Z,50.43
2022-11-08T10:59:25.192Z,50.42
2022-11-08T11:01:58.340Z,50.43
2022-11-08T11:04:31.246Z,50.41
2022-11-08T11:07:04.306Z,50.39
2022-11-08T11:09:37.278Z,50.42
2022-11-08T11:12:10.311Z,50.39
2022-11-08T11:14:43.238Z,50.34
2022-11-08T11:17:16.373Z,50.32
2022-11-08T11:20:03.220Z,50.33
2022-11-08T11:22:36.394Z,50.32
2022-11-08T11:25:10.251Z,50.31
2022-11-08T11:27:43.345Z,50.29
2022-11-08T11:30:16.344Z,50.30
2022-11-08T11:32:49.380Z,50.28
2022-11-08T11:35:22.289Z,50.30
2022-11-08T11:37:55.327Z,50.26
2022-11-08T11:40:28.224Z,50.27
2022-11-08T11:43:01.335Z,50.28
2022-11-08T11:45:34.275Z,50.26
2022-11-08T11:48:07.235Z,50.23
2022-11-08T11:50:40.120Z,50.21
2022-11-08T11:53:13.326Z,50.25
2022-11-08T11:55:46.366Z,50.24
2022-11-08T11:58:19.704Z,50.22
2022-11-08T12:00:52.379Z,50.23
2022-11-08T12:03:25.317Z,50.22
2022-11-08T12:05:58.431Z,50.22
2022-11-08T12:08:31.312Z,50.23
2022-11-08T12:11:04.406Z,50.22
2022-11-08T12:13:37.285Z,50.19
2022-11-08T12:16:10.421Z,50.15
2022-11-08T12:18:44.494Z,50.12
2022-11-08T12:21:19.381Z,50.15
2022-11-08T12:23:52.327Z,50.13
2022-11-08T12:26:25.108Z,50.11
2022-11-08T12:28:58.360Z,50.10
2022-11-08T12:31:31.403Z,50.12
2022-11-08T12:34:04.374Z,50.09
2022-11-08T12:36:37.361Z,50.10
2022-11-08T12:39:10.029Z,50.09
2022-11-08T12:41:43.174Z,50.09
2022-11-08T12:44:16.387Z,50.09
2022-11-08T12:46:49.207Z,50.08
2022-11-08T12:49:22.328Z,50.10
2022-11-08T12:51:55.528Z,50.09
2022-11-08T12:54:28.359Z,50.13
2022-11-08T12:57:01.446Z,50.11
2022-11-08T12:59:34.512Z,50.11
2022-11-08T13:02:07.473Z,50.10
2022-11-08T13:04:40.362Z,50.10
2022-11-08T13:07:13.589Z,50.12
2022-11-08T13:09:46.419Z,50.12
2022-11-08T13:12:19.464Z,50.07
2022-11-08T13:14:52.418Z,50.10
2022-11-08T13:17:25.469Z,50.11
2022-11-08T13:20:03.399Z,50.10
2022-11-08T13:22:31.170Z,49.98
2022-11-08T13:25:04.237Z,50.01
2022-11-08T13:27:37.165Z,49.99
2022-11-08T13:30:10.503Z,50.01
2022-11-08T13:32:43.405Z,49.98
2022-11-08T13:35:16.412Z,50.05
2022-11-08T13:37:49.450Z,50.17
2022-11-08T13:40:22.415Z,50.19
2022-11-08T13:42:55.418Z,50.29
2022-11-08T13:45:28.431Z,50.35
2022-11-08T13:48:01.416Z,50.36
2022-11-08T13:50:34.175Z,50.38
2022-11-08T13:53:07.318Z,50.44
2022-11-08T13:55:40.488Z,50.41
2022-11-08T13:58:13.230Z,50.45
2022-11-08T14:00:46.307Z,50.47
2022-11-08T14:03:19.985Z,50.47
2022-11-08T14:05:52.489Z,50.51
2022-11-08T14:08:25.491Z,50.56
2022-11-08T14:10:58.452Z,50.59
2022-11-08T14:13:33.006Z,50.55
2022-11-08T14:16:08.903Z,50.58
2022-11-08T14:18:42.560Z,50.60
2022-11-08T14:21:15.236Z,50.59
2022-11-08T14:23:48.599Z,50.59
2022-11-08T14:26:24.205Z,50.59
2022-11-08T14:28:57.262Z,50.61
2022-11-08T14:31:30.369Z,50.67
2022-11-08T14:34:03.551Z,50.68
2022-11-08T14:36:36.352Z,50.67
2022-11-08T14:39:09.623Z,50.67
2022-11-08T14:41:42.354Z,50.67
2022-11-08T14:44:15.539Z,50.70
2022-11-08T14:46:48.609Z,50.67
2022-11-08T14:49:21.657Z,50.69
2022-11-08T14:51:54.583Z,50.74
2022-11-08T14:54:27.659Z,50.73
2022-11-08T14:57:00.583Z,50.74
2022-11-08T14:59:33.411Z,50.74
2022-11-08T15:02:06.653Z,50.75
2022-11-08T15:04:39.267Z,50.78
2022-11-08T15:07:12.532Z,50.74
2022-11-08T15:09:45.440Z,50.75
2022-11-08T15:12:18.350Z,50.77
2022-11-08T15:14:51.660Z,50.76
2022-11-08T15:17:24.333Z,50.82
2022-11-08T15:19:57.461Z,50.82
2022-11-08T15:22:30.320Z,50.83
2022-11-08T15:25:03.551Z,50.85
2022-11-08T15:27:36.556Z,50.84
2022-11-08T15:30:09.676Z,50.86
2022-11-08T15:32:42.567Z,50.89
2022-11-08T15:35:15.703Z,50.89
2022-11-08T15:37:48.689Z,50.92
2022-11-08T15:40:21.690Z,50.91
2022-11-08T15:42:54.622Z,50.94
2022-11-08T15:45:27.702Z,50.96
2022-11-08T15:48:00.631Z,50.99
2022-11-08T15:50:33.710Z,50.99
2022-11-08T15:53:20.584Z,50.98
2022-11-08T15:55:53.409Z,51.00
2022-11-08T15:58:26.659Z,50.99
2022-11-08T16:00:59.515Z,50.97
2022-11-08T16:03:36.519Z,50.98
2022-11-08T16:06:09.353Z,51.03
2022-11-08T16:08:42.739Z,50.98
2022-11-08T16:11:21.483Z,51.02
2022-11-08T16:13:54.720Z,50.92
2022-11-08T16:16:31.258Z,50.95
2022-11-08T16:19:06.733Z,50.98
2022-11-08T16:21:39.765Z,50.79
2022-11-08T16:24:12.650Z,50.61
2022-11-08T16:26:45.739Z,50.47
2022-11-08T16:29:18.675Z,50.53
2022-11-08T16:31:51.742Z,50.43
2022-11-08T16:34:24.760Z,50.37
2022-11-08T16:36:57.779Z,50.38
2022-11-08T16:39:30.789Z,50.44
2022-11-08T16:42:03.813Z,50.46
2022-11-08T16:44:36.481Z,50.49
2022-11-08T16:47:09.392Z,50.50
2022-11-08T16:49:43.876Z,50.49
2022-11-08T16:52:15.716Z,50.49
2022-11-08T16:54:48.514Z,50.49
2022-11-08T16:57:34.292Z,50.49
2022-11-08T16:59:54.549Z,50.51
2022-11-08T17:02:27.576Z,50.51
2022-11-08T17:05:00.655Z,50.52
2022-11-08T17:07:33.474Z,50.55
2022-11-08T17:10:06.578Z,50.56
2022-11-08T17:12:39.643Z,50.56
2022-11-08T17:15:12.449Z,50.57
2022-11-08T17:17:45.659Z,50.57
2022-11-08T17:20:18.505Z,50.58
2022-11-08T17:22:54.537Z,50.58
2022-11-08T17:25:28.241Z,50.58
2022-11-08T17:28:01.791Z,50.62
2022-11-08T17:30:34.639Z,50.66
2022-11-08T17:33:07.805Z,50.67
2022-11-08T17:35:43.968Z,50.73
2022-11-08T17:38:13.804Z,50.74
2022-11-08T17:40:46.682Z,50.76
2022-11-08T17:43:33.822Z,50.83
2022-11-08T17:46:06.701Z,50.87
2022-11-08T17:48:39.804Z,50.85
2022-11-08T17:51:12.805Z,50.86
2022-11-08T17:53:45.906Z,50.86
2022-11-08T17:56:18.782Z,50.89
2022-11-08T17:58:51.832Z,50.91
2022-11-08T18:01:24.615Z,50.92
2022-11-08T18:03:57.546Z,50.92
2022-11-08T18:06:30.682Z,50.93
2022-11-08T18:09:03.551Z,50.94
2022-11-08T18:11:36.674Z,50.96
2022-11-08T18:14:09.769Z,51.00
2022-11-08T18:16:42.572Z,50.96
2022-11-08T18:19:15.548Z,50.97
2022-11-08T18:21:48.691Z,51.00
2022-11-08T18:24:21.848Z,51.02
2022-11-08T18:26:54.870Z,51.07
2022-11-08T18:29:28.005Z,51.05
2022-11-08T18:32:00.749Z,51.04
2022-11-08T18:34:33.764Z,51.04
2022-11-08T18:37:06.571Z,51.10
2022-11-08T18:39:39.693Z,51.04
2022-11-08T18:42:12.599Z,51.09
2022-11-08T18:44:45.775Z,51.06
2022-11-08T18:47:32.831Z,51.08
2022-11-08T18:50:05.756Z,51.09
2022-11-08T18:52:38.899Z,51.07
2022-11-08T18:55:11.912Z,51.11
2022-11-08T18:57:44.682Z,51.12
2022-11-08T19:00:17.712Z,51.14
2022-11-08T19:02:50.747Z,51.13
2022-11-08T19:05:23.695Z,51.16
2022-11-08T19:07:56.777Z,51.16
2022-11-08T19:10:29.816Z,51.16
2022-11-08T19:13:02.859Z,51.18
2022-11-08T19:15:35.703Z,51.20
2022-11-08T19:18:08.777Z,51.22
2022-11-08T19:20:41.817Z,51.18
2022-11-08T19:23:14.641Z,51.22
2022-11-08T19:25:47.820Z,51.23
2022-11-08T19:28:34.671Z,51.24
2022-11-08T19:31:07.870Z,51.22
2022-11-08T19:33:40.700Z,51.28
2022-11-08T19:36:13.672Z,51.33
2022-11-08T19:38:46.887Z,51.27
2022-11-08T19:41:19.819Z,51.29
2022-11-08T19:43:52.869Z,51.33
2022-11-08T19:46:26.088Z,51.38
2022-11-08T19:48:58.788Z,51.28
2022-11-08T19:51:31.863Z,51.36
2022-11-08T19:54:04.845Z,51.35
2022-11-08T19:57:09.803Z,51.38
2022-11-08T19:59:12.683Z,51.34
2022-11-08T20:01:45.922Z,51.41
2022-11-08T20:04:18.842Z,51.38
2022-11-08T20:06:51.904Z,51.44
2022-11-08T20:09:30.192Z,51.42
2022-11-08T20:11:57.855Z,51.39
2022-11-08T20:14:30.894Z,51.46
2022-11-08T20:17:03.824Z,51.50
2022-11-08T20:19:36.921Z,51.53
2022-11-08T20:22:10.009Z,51.69
2022-11-08T20:24:42.996Z,51.41
2022-11-08T20:27:15.741Z,51.25
2022-11-08T20:29:48.853Z,51.15
2022-11-08T20:32:24.675Z,51.27
2022-11-08T20:34:58.702Z,51.29
2022-11-08T20:37:30.953Z,51.32
2022-11-08T20:40:04.033Z,51.36
2022-11-08T20:42:36.840Z,51.44
2022-11-08T20:45:14.740Z,51.44
2022-11-08T20:47:42.849Z,51.50
2022-11-08T20:50:15.831Z,51.51
2022-11-08T20:52:49.092Z,51.52
2022-11-08T20:55:21.963Z,51.47
2022-11-08T20:57:55.096Z,51.43
2022-11-08T21:00:52.114Z,51.19
2022-11-08T21:03:00.887Z,51.33
2022-11-08T21:05:34.109Z,51.15
2022-11-08T21:08:57.309Z,51.22
2022-11-08T21:10:43.273Z,51.17
2022-11-08T21:13:13.105Z,51.34
2022-11-08T21:15:46.208Z,51.37
2022-11-08T21:18:19.622Z,51.39
2022-11-08T21:20:51.916Z,51.43
2022-11-08T21:23:25.263Z,51.44
2022-11-08T21:25:58.222Z,51.42
2022-11-08T21:28:30.842Z,51.39
2022-11-08T21:31:03.996Z,51.48
2022-11-08T21:33:37.236Z,51.55
2022-11-08T21:36:09.829Z,51.56
2022-11-08T21:38:42.898Z,51.54
2022-11-08T21:41:16.169Z,51.60
2022-11-08T21:43:49.198Z,51.56
2022-11-08T21:46:22.168Z,51.53
2022-11-08T21:48:55.258Z,51.59
2022-11-08T21:51:28.172Z,51.57
2022-11-08T21:54:01.177Z,51.56
2022-11-08T21:56:34.170Z,51.58
2022-11-08T21:59:07.203Z,51.55
2022-11-08T22:01:40.165Z,51.56
2022-11-08T22:04:13.223Z,51.53
2022-11-08T22:06:47.779Z,51.56
2022-11-08T22:09:19.177Z,51.54
2022-11-08T22:11:52.292Z,51.51
2022-11-08T22:14:25.269Z,51.50
2022-11-08T22:16:58.267Z,51.57
2022-11-08T22:19:31.207Z,51.29
2022-11-08T22:22:04.289Z,50.65
2022-11-08T22:24:37.277Z,50.64
2022-11-08T22:27:10.280Z,51.00
2022-11-08T22:29:43.209Z,51.09
2022-11-08T22:32:16.212Z,51.17
2022-11-08T22:34:49.273Z,51.23
2022-11-08T22:37:22.209Z,51.29
2022-11-08T22:39:55.035Z,51.32
2022-11-08T22:42:28.281Z,51.30
2022-11-08T22:45:01.227Z,51.36
2022-11-08T22:47:34.328Z,51.39
2022-11-08T22:50:07.312Z,51.40
2022-11-08T22:52:40.343Z,51.43
2022-11-08T22:55:13.326Z,51.41
2022-11-08T22:57:46.245Z,51.44
2022-11-08T23:00:19.364Z,51.50
2022-11-08T23:02:52.318Z,51.51
2022-11-08T23:05:25.252Z,51.59
2022-11-08T23:07:58.270Z,51.60
2022-11-08T23:10:31.278Z,51.63
2022-11-08T23:13:04.325Z,51.62
2022-11-08T23:15:37.432Z,51.63
2022-11-08T23:18:10.356Z,51.66
2022-11-08T23:20:43.338Z,51.64
2022-11-08T23:23:16.600Z,51.67
2022-11-08T23:25:49.308Z,51.71
2022-11-08T23:28:22.336Z,51.68
2022-11-08T23:30:55.308Z,51.64
2022-11-08T23:33:28.296Z,51.66
2022-11-08T23:36:15.340Z,51.70
2022-11-08T23:38:48.408Z,51.70
2022-11-08T23:41:21.345Z,51.74
2022-11-08T23:43:54.338Z,51.75
2022-11-08T23:46:27.295Z,51.76
2022-11-08T23:49:00.429Z,51.77
2022-11-08T23:51:33.361Z,51.87
2022-11-08T23:54:06.322Z,51.92
2022-11-08T23:56:39.321Z,52.03
2022-11-08T23:59:12.326Z,52.00
